Terminal Aerodrome Forecast
Issued by NWS

Home | Current Version | Previous Version | Text Only | Print | Product List | Glossary On
Versions: 1 2 3 4 5 6 7 8 9 10 11 12 13 14 15 16 17 18 19 20 21 22 23 24 25 26 27 28 29 30 31 32 33 34 35 36 37 38 39 40 41 42 43 44 45 46 47 48 49 50
000
FTUS43 KMKX 280257 AAA
TAFUES
TAF AMD
KUES 280257Z 2803/2824 25011KT P6SM VCSH BKN025 OVC035
     FM280500 24009KT P6SM SCT025 BKN035
     FM280800 24007KT P6SM BKN045
     FM281000 25004KT P6SM FEW045 SCT150
     FM281900 13006KT P6SM BKN035
     FM282100 07007KT P6SM BKN025=

USA.gov is the U.S. government's official web portal to all federal, state and local government web resources and services.